Time;durP1;ratioP1;P1;durP2;ratioP2;P2;SDS_P1;SDS_P2;PMS_P1;PMS_P2;Temp;Humidity;BMP_temperature;BMP_pressure;BME280_temperature;BME280_humidity;BME280_pressure;Samples;Min_cycle;Max_cycle;Signal;HPM_P1;HPM_P2
2022/08/19 00:01:57;;;;;;;0.70;0.20;;;23.30;99.90;;;;;;5056224;28;21008;-72
2022/08/19 00:04:29;;;;;;;0.70;0.20;;;23.30;99.90;;;;;;5055703;28;20478;-71
2022/08/19 00:06:59;;;;;;;0.70;0.27;;;23.30;99.90;;;;;;5041177;28;20458;-71
2022/08/19 00:09:28;;;;;;;0.70;0.20;;;23.30;99.90;;;;;;5034584;28;20541;-71
2022/08/19 00:11:57;;;;;;;0.90;0.73;;;23.30;99.90;;;;;;5033982;28;20463;-71
2022/08/19 00:14:26;;;;;;;0.70;0.20;;;23.20;99.90;;;;;;5033824;28;20942;-71
2022/08/19 00:16:54;;;;;;;0.80;0.30;;;23.20;99.90;;;;;;5037647;28;20826;-71
2022/08/19 00:19:23;;;;;;;0.70;0.20;;;23.20;99.90;;;;;;5049025;28;20945;-70
2022/08/19 00:21:52;;;;;;;0.70;0.10;;;23.20;99.90;;;;;;5033258;28;20475;-71
2022/08/19 00:24:21;;;;;;;0.70;0.10;;;23.20;99.90;;;;;;5033634;28;21015;-71
2022/08/19 00:26:50;;;;;;;0.70;0.10;;;23.10;99.90;;;;;;5044944;28;20968;-72
2022/08/19 00:29:20;;;;;;;1.07;0.97;;;23.10;99.90;;;;;;5053408;28;20438;-72
2022/08/19 00:31:49;;;;;;;0.80;0.33;;;23.00;99.90;;;;;;5042489;28;20471;-72
2022/08/19 00:34:17;;;;;;;7.70;3.40;;;23.00;99.90;;;;;;5059097;28;20438;-72
2022/08/19 00:36:46;;;;;;;0.70;0.20;;;23.00;99.90;;;;;;5044506;28;20452;-72
2022/08/19 00:39:15;;;;;;;0.70;0.10;;;23.00;99.90;;;;;;5033506;28;20451;-71
2022/08/19 00:41:47;;;;;;;2.30;2.10;;;23.00;99.90;;;;;;5033207;28;21001;-70
2022/08/19 00:44:19;;;;;;;0.70;0.10;;;22.90;99.90;;;;;;5033455;28;20486;-70
2022/08/19 00:46:51;;;;;;;0.70;0.20;;;22.90;99.90;;;;;;5041234;28;20943;-71
2022/08/19 00:49:28;;;;;;;1.00;0.40;;;22.90;99.90;;;;;;5052701;28;20952;-71
2022/08/19 00:52:01;;;;;;;0.70;0.20;;;22.90;99.90;;;;;;5053098;28;20835;-72
2022/08/19 00:54:31;;;;;;;1.83;0.60;;;22.90;99.90;;;;;;5057646;28;20431;-71
2022/08/19 00:57:02;;;;;;;0.70;0.10;;;22.80;99.90;;;;;;5062324;28;20446;-71
2022/08/19 00:59:30;;;;;;;0.80;0.30;;;22.90;99.90;;;;;;5053160;28;20824;-71
2022/08/19 01:02:19;;;;;;;0.70;0.20;;;22.80;99.90;;;;;;5053421;28;20522;-72
2022/08/19 01:04:47;;;;;;;0.70;0.10;;;22.80;99.90;;;;;;5053235;28;20478;-70
2022/08/19 01:07:16;;;;;;;0.70;0.10;;;22.80;99.90;;;;;;5052823;28;20541;-71
2022/08/19 01:09:47;;;;;;;2.00;1.43;;;;;;;;;;5053048;28;20543;-70
2022/08/19 01:12:17;;;;;;;0.70;0.20;;;22.80;99.90;;;;;;5053769;28;20511;-71
2022/08/19 01:14:46;;;;;;;0.73;0.23;;;22.80;99.90;;;;;;5053582;28;20435;-71
2022/08/19 01:17:16;;;;;;;0.70;0.20;;;22.70;99.90;;;;;;5053075;28;20456;-71
2022/08/19 01:19:46;;;;;;;0.70;0.20;;;22.80;99.90;;;;;;5052971;28;20450;-71
2022/08/19 01:22:22;;;;;;;0.70;0.17;;;22.70;99.90;;;;;;5052638;28;20555;-72
2022/08/19 01:25:01;;;;;;;0.70;0.10;;;22.70;99.90;;;;;;5052716;28;20636;-71
2022/08/19 01:27:38;;;;;;;0.70;0.20;;;22.70;99.90;;;;;;5052828;28;20914;-72
2022/08/19 01:30:13;;;;;;;0.70;0.17;;;22.70;99.90;;;;;;5052971;28;20438;-71
2022/08/19 01:32:41;;;;;;;0.87;0.40;;;22.70;99.90;;;;;;5052540;28;20447;-71
2022/08/19 01:35:10;;;;;;;0.70;0.20;;;22.70;99.90;;;;;;5052731;28;20446;-72
2022/08/19 01:37:50;;;;;;;0.70;0.20;;;22.70;99.90;;;;;;5052369;28;20446;-73
2022/08/19 01:40:21;;;;;;;0.70;0.10;;;22.70;99.90;;;;;;5052584;28;20470;-71
2022/08/19 01:42:50;;;;;;;0.70;0.20;;;22.70;99.90;;;;;;5052350;28;20852;-71
2022/08/19 01:45:19;;;;;;;0.70;0.20;;;22.70;99.90;;;;;;5052842;28;20488;-73
2022/08/19 01:47:47;;;;;;;0.70;0.10;;;22.70;99.90;;;;;;5052624;28;20450;-71
2022/08/19 01:50:28;;;;;;;0.90;0.40;;;22.70;99.90;;;;;;5052106;28;20496;-71
2022/08/19 01:52:56;;;;;;;0.70;0.20;;;22.70;99.90;;;;;;5052279;28;20442;-72
2022/08/19 01:55:36;;;;;;;0.80;0.40;;;22.70;99.90;;;;;;5052259;28;20415;-71
2022/08/19 01:58:11;;;;;;;0.90;0.40;;;22.70;99.90;;;;;;5052140;28;20484;-71
2022/08/19 02:00:39;;;;;;;0.70;0.10;;;22.70;99.90;;;;;;5051167;28;20459;-71
2022/08/19 02:03:08;;;;;;;0.70;0.10;;;22.70;99.90;;;;;;5052403;28;20457;-72
2022/08/19 02:05:36;;;;;;;0.70;0.20;;;22.70;99.90;;;;;;5051560;28;20483;-71
2022/08/19 02:08:04;;;;;;;0.70;0.20;;;22.70;99.90;;;;;;5051153;28;20447;-71
2022/08/19 02:10:32;;;;;;;0.80;0.50;;;22.80;99.90;;;;;;5050873;28;20462;-71
2022/08/19 02:13:03;;;;;;;1.40;1.30;;;;;;;;;;5051826;28;20462;-71
2022/08/19 02:15:31;;;;;;;0.93;0.83;;;22.70;99.90;;;;;;5051468;28;20957;-71
2022/08/19 02:17:59;;;;;;;0.90;0.67;;;22.70;99.90;;;;;;5051700;28;20449;-71
2022/08/19 02:20:27;;;;;;;0.70;0.13;;;22.70;99.90;;;;;;5051437;28;20984;-70
2022/08/19 02:22:55;;;;;;;0.70;0.10;;;22.70;99.90;;;;;;5051548;28;20458;-70
2022/08/19 02:25:23;;;;;;;0.70;0.20;;;22.70;99.90;;;;;;5051739;28;20475;-71
2022/08/19 02:27:51;;;;;;;0.70;0.20;;;22.70;99.90;;;;;;5051421;28;20447;-70
2022/08/19 02:30:21;;;;;;;0.70;0.10;;;22.70;99.90;;;;;;5051091;28;20466;-70
2022/08/19 02:32:48;;;;;;;0.70;0.20;;;22.80;99.90;;;;;;5051633;28;20454;-71
2022/08/19 02:35:16;;;;;;;0.70;0.20;;;22.80;99.90;;;;;;5051193;28;20439;-70
2022/08/19 02:40:33;;;;;;;0.70;0.10;;;22.90;99.90;;;;;;5051241;28;20768;-71
2022/08/19 02:43:02;;;;;;;0.70;0.10;;;;;;;;;;5051375;28;20533;-71
2022/08/19 02:45:34;;;;;;;0.70;0.10;;;22.90;99.90;;;;;;5050952;28;20474;-72
2022/08/19 02:48:02;;;;;;;0.70;0.10;;;22.90;99.90;;;;;;5051083;28;20567;-70
2022/08/19 02:50:40;;;;;;;0.70;0.10;;;22.80;99.90;;;;;;5051116;28;20556;-71
2022/08/19 02:53:21;;;;;;;0.70;0.20;;;22.80;99.90;;;;;;5051336;28;20450;-71
2022/08/19 02:55:50;;;;;;;0.70;0.10;;;22.90;99.90;;;;;;5051276;28;20442;-71
2022/08/19 02:58:20;;;;;;;0.70;0.20;;;22.90;99.90;;;;;;5051122;28;20465;-71
2022/08/19 03:00:53;;;;;;;0.70;0.20;;;22.90;99.90;;;;;;5051105;28;21061;-71
2022/08/19 03:03:21;;;;;;;0.70;0.20;;;22.90;99.90;;;;;;5051152;28;20538;-71
2022/08/19 03:05:49;;;;;;;0.70;0.20;;;22.80;99.90;;;;;;5050684;28;20484;-71
2022/08/19 03:08:25;;;;;;;0.70;0.10;;;22.80;99.90;;;;;;5050712;28;20441;-71
2022/08/19 03:10:53;;;;;;;0.70;0.20;;;22.80;99.90;;;;;;5050727;28;20556;-71
2022/08/19 03:13:23;;;;;;;0.70;0.20;;;22.80;99.90;;;;;;5053950;28;20944;-71
2022/08/19 03:15:52;;;;;;;0.70;0.10;;;22.80;99.90;;;;;;5054850;28;20437;-71
2022/08/19 03:18:20;;;;;;;0.70;0.20;;;22.70;99.90;;;;;;5054379;28;20541;-71
2022/08/19 03:20:54;;;;;;;0.70;0.20;;;22.70;99.90;;;;;;5054873;28;20520;-71
2022/08/19 03:23:22;;;;;;;0.70;0.10;;;22.70;99.90;;;;;;5054917;28;20886;-70
2022/08/19 03:25:53;;;;;;;0.70;0.20;;;22.70;99.90;;;;;;5054741;28;20470;-72
2022/08/19 03:28:41;;;;;;;0.70;0.10;;;22.70;99.90;;;;;;5054854;28;20434;-71
2022/08/19 03:31:20;;;;;;;0.70;0.10;;;22.70;99.90;;;;;;5054813;28;20485;-71
2022/08/19 03:34:08;;;;;;;0.70;0.20;;;22.70;99.90;;;;;;5054492;28;20469;-72
2022/08/19 03:36:36;;;;;;;0.70;0.10;;;22.60;99.90;;;;;;5054258;28;20996;-71
2022/08/19 03:39:04;;;;;;;0.70;0.10;;;22.60;99.90;;;;;;5054491;28;20480;-70
2022/08/19 03:41:37;;;;;;;0.70;0.20;;;22.60;99.90;;;;;;5050707;28;20466;-71
2022/08/19 03:44:13;;;;;;;0.70;0.10;;;22.60;99.90;;;;;;5054142;28;20537;-71
2022/08/19 03:46:47;;;;;;;0.70;0.10;;;22.60;99.90;;;;;;5054015;28;20532;-71
2022/08/19 03:49:16;;;;;;;0.70;0.20;;;22.60;99.90;;;;;;5054105;28;20457;-71
2022/08/19 03:51:46;;;;;;;0.70;0.17;;;22.60;99.90;;;;;;5051818;28;20875;-71
2022/08/19 03:54:16;;;;;;;0.70;0.17;;;22.60;99.90;;;;;;5054187;28;20450;-72
2022/08/19 03:56:47;;;;;;;0.70;0.40;;;22.50;99.90;;;;;;5054047;28;20442;-71
2022/08/19 03:59:18;;;;;;;0.70;0.10;;;22.50;99.90;;;;;;5053868;28;20961;-71
2022/08/19 04:01:47;;;;;;;0.70;0.10;;;22.50;99.90;;;;;;5053265;28;20841;-71
2022/08/19 04:04:15;;;;;;;0.70;0.20;;;22.50;99.90;;;;;;5055155;28;21180;-71
2022/08/19 04:06:47;;;;;;;1.13;0.93;;;22.50;99.90;;;;;;5052746;28;20474;-71
2022/08/19 04:09:15;;;;;;;0.70;0.10;;;22.40;99.90;;;;;;5052729;28;20546;-70
2022/08/19 04:11:45;;;;;;;0.70;0.10;;;22.40;99.90;;;;;;5053287;28;20462;-72
2022/08/19 04:14:16;;;;;;;0.70;0.10;;;22.40;99.90;;;;;;5053912;28;20442;-70
2022/08/19 04:16:46;;;;;;;0.70;0.10;;;22.40;99.90;;;;;;5053532;28;20956;-72
2022/08/19 04:19:17;;;;;;;0.70;0.17;;;22.30;99.90;;;;;;5053898;28;20534;-72
2022/08/19 04:21:46;;;;;;;0.70;0.10;;;22.30;99.90;;;;;;5053594;28;20470;-71
2022/08/19 04:24:15;;;;;;;0.70;0.10;;;22.30;99.90;;;;;;5052903;28;20458;-72
2022/08/19 04:26:43;;;;;;;0.70;0.20;;;22.30;99.90;;;;;;5053350;28;20509;-73
2022/08/19 04:29:14;;;;;;;0.70;0.10;;;22.30;99.90;;;;;;5053765;28;20449;-71
2022/08/19 04:31:44;;;;;;;0.70;0.40;;;22.30;99.90;;;;;;5053627;28;20481;-73
2022/08/19 04:34:17;;;;;;;0.70;0.10;;;22.30;99.90;;;;;;5053642;28;20808;-71
2022/08/19 04:36:45;;;;;;;2.80;1.43;;;22.30;99.90;;;;;;5053480;28;20443;-70
2022/08/19 04:39:16;;;;;;;0.70;0.40;;;22.30;99.90;;;;;;5053521;28;20541;-69
2022/08/19 04:44:31;;;;;;;0.70;0.20;;;22.20;99.90;;;;;;5053556;28;20446;-69
2022/08/19 04:47:01;;;;;;;1.03;0.50;;;22.20;99.90;;;;;;5053351;28;20501;-71
2022/08/19 04:49:39;;;;;;;0.70;0.20;;;22.20;99.90;;;;;;5053125;28;20541;-71
2022/08/19 04:52:08;;;;;;;0.70;0.10;;;22.20;99.90;;;;;;5053118;28;20474;-71
2022/08/19 04:54:36;;;;;;;0.70;0.20;;;22.20;99.90;;;;;;5053210;28;20446;-72
2022/08/19 04:57:09;;;;;;;0.70;0.10;;;22.20;99.90;;;;;;5052274;28;20439;-70
2022/08/19 04:59:39;;;;;;;0.70;0.17;;;22.20;99.90;;;;;;5053077;28;20801;-71
2022/08/19 05:02:08;;;;;;;0.70;0.20;;;;;;;;;;5052738;28;20976;-70
2022/08/19 05:04:38;;;;;;;0.70;0.20;;;22.20;99.90;;;;;;5053006;28;20472;-71
2022/08/19 05:07:10;;;;;;;0.70;0.10;;;22.20;99.90;;;;;;5052938;28;20485;-71
2022/08/19 05:09:38;;;;;;;0.70;0.10;;;22.20;99.90;;;;;;5052848;28;20941;-70
2022/08/19 05:12:26;;;;;;;0.70;0.20;;;;;;;;;;5051781;28;20435;-70
2022/08/19 05:14:57;;;;;;;0.70;0.20;;;;;;;;;;5054599;28;20460;-71
2022/08/19 05:17:25;;;;;;;0.70;0.10;;;22.20;99.90;;;;;;5070826;28;20512;-70
2022/08/19 05:22:45;;;;;;;0.70;0.20;;;22.20;99.90;;;;;;5056315;28;20604;-71
2022/08/19 05:25:18;;;;;;;0.70;0.10;;;22.20;99.90;;;;;;5052647;28;20445;-71
2022/08/19 05:27:46;;;;;;;0.70;0.13;;;22.20;99.90;;;;;;5052663;28;20490;-72
2022/08/19 05:30:14;;;;;;;0.70;0.10;;;22.20;99.90;;;;;;5052051;28;20452;-72
2022/08/19 05:32:42;;;;;;;0.70;0.10;;;22.20;99.90;;;;;;5052692;28;20478;-72
2022/08/19 05:35:11;;;;;;;0.70;0.20;;;22.20;99.90;;;;;;5060286;28;20478;-72
2022/08/19 05:37:40;;;;;;;1.53;1.43;;;22.30;99.90;;;;;;5050299;28;20458;-72
2022/08/19 05:40:10;;;;;;;0.70;0.10;;;22.30;99.90;;;;;;5052360;28;20518;-70
2022/08/19 05:42:38;;;;;;;0.70;0.17;;;22.30;99.90;;;;;;5058788;28;20434;-72
2022/08/19 05:45:09;;;;;;;0.70;0.17;;;22.40;99.90;;;;;;5072224;28;20533;-72
2022/08/19 05:47:37;;;;;;;1.00;0.73;;;22.50;99.90;;;;;;5053985;28;20482;-72
2022/08/19 05:50:11;;;;;;;0.70;0.20;;;22.50;99.90;;;;;;5053042;28;20466;-72
2022/08/19 05:52:40;;;;;;;0.70;0.20;;;22.50;99.90;;;;;;5053806;28;20443;-73
2022/08/19 05:55:23;;;;;;;0.70;0.10;;;22.50;99.90;;;;;;5053236;28;20457;-73
2022/08/19 05:57:51;;;;;;;0.70;0.10;;;22.60;99.90;;;;;;5031989;28;20938;-74
2022/08/19 06:00:19;;;;;;;0.70;0.20;;;22.60;99.90;;;;;;5032160;28;20490;-73
2022/08/19 06:02:51;;;;;;;0.70;0.10;;;22.60;99.90;;;;;;5037245;28;20457;-73
2022/08/19 06:05:20;;;;;;;0.70;0.20;;;22.60;99.90;;;;;;5051661;28;20929;-73
2022/08/19 06:07:48;;;;;;;0.70;0.20;;;22.60;99.90;;;;;;5051715;28;20564;-74
2022/08/19 06:10:15;;;;;;;0.70;0.10;;;22.70;99.90;;;;;;5051744;28;20505;-72
2022/08/19 06:12:45;;;;;;;0.80;0.50;;;22.70;99.90;;;;;;5051761;28;20446;-73
2022/08/19 06:15:15;;;;;;;0.70;0.20;;;22.70;99.90;;;;;;5060147;28;20438;-73
2022/08/19 06:17:44;;;;;;;0.70;0.30;;;22.70;99.90;;;;;;5058621;28;20458;-72
2022/08/19 06:20:14;;;;;;;0.70;0.10;;;22.80;99.90;;;;;;5049913;28;20790;-70
2022/08/19 06:22:45;;;;;;;0.70;0.10;;;23.80;99.90;;;;;;5051714;28;20438;-71
2022/08/19 06:25:15;;;;;;;0.70;0.20;;;22.80;99.90;;;;;;5051333;28;20438;-72
2022/08/19 06:27:43;;;;;;;0.70;0.10;;;22.90;99.90;;;;;;5051426;28;20564;-70
2022/08/19 06:30:32;;;;;;;0.70;0.20;;;22.90;99.90;;;;;;5031548;28;20800;-71
2022/08/19 06:33:00;;;;;;;0.70;0.10;;;22.90;99.90;;;;;;5031526;28;20435;-70
2022/08/19 06:35:29;;;;;;;0.70;0.20;;;22.90;99.90;;;;;;5041224;28;20439;-71
2022/08/19 06:37:57;;;;;;;0.77;0.47;;;22.90;99.90;;;;;;5050804;28;20434;-70
2022/08/19 06:40:25;;;;;;;0.70;0.20;;;22.90;99.90;;;;;;5051452;28;20546;-71
2022/08/19 06:42:53;;;;;;;0.70;0.20;;;22.90;99.90;;;;;;5051891;28;20458;-71
2022/08/19 06:45:22;;;;;;;0.70;0.30;;;23.00;99.90;;;;;;5050521;28;20445;-72
2022/08/19 06:48:02;;;;;;;0.70;0.20;;;22.90;99.90;;;;;;5050661;28;21050;-73
2022/08/19 06:50:30;;;;;;;0.70;0.20;;;23.00;99.90;;;;;;5050678;28;20830;-72
2022/08/19 06:52:58;;;;;;;0.70;0.10;;;23.00;99.90;;;;;;5050052;28;20462;-72
2022/08/19 06:55:31;;;;;;;0.90;0.30;;;23.00;99.90;;;;;;5051520;28;20485;-74
2022/08/19 06:58:03;;;;;;;0.70;0.30;;;23.00;99.90;;;;;;5051557;28;20473;-76
2022/08/19 07:00:31;;;;;;;0.70;0.10;;;23.00;99.90;;;;;;5051981;28;20560;-76
2022/08/19 07:03:00;;;;;;;0.70;0.20;;;23.00;99.90;;;;;;5052708;28;20442;-76
2022/08/19 07:05:38;;;;;;;0.70;0.20;;;22.90;99.90;;;;;;5056033;28;20534;-76
2022/08/19 07:08:07;;;;;;;1.20;1.07;;;22.90;99.90;;;;;;5054044;28;20474;-76
2022/08/19 07:10:36;;;;;;;0.70;0.30;;;22.80;99.90;;;;;;5052707;28;20553;-76
2022/08/19 07:13:09;;;;;;;0.70;0.20;;;22.80;99.90;;;;;;5056079;28;20920;-76
2022/08/19 07:15:37;;;;;;;0.70;0.20;;;22.70;99.90;;;;;;5055284;28;20450;-77
2022/08/19 07:18:07;;;;;;;0.70;0.20;;;22.80;99.90;;;;;;5055602;28;20462;-76
2022/08/19 07:20:40;;;;;;;0.70;0.10;;;22.70;99.90;;;;;;5054699;28;20478;-76
2022/08/19 07:23:09;;;;;;;0.70;0.20;;;22.80;99.90;;;;;;5053410;28;20442;-76
2022/08/19 07:25:50;;;;;;;0.80;0.53;;;22.80;99.90;;;;;;5048780;28;20500;-76
2022/08/19 07:28:20;;;;;;;0.90;0.33;;;22.80;99.90;;;;;;5050946;28;21071;-76
2022/08/19 07:30:52;;;;;;;0.80;0.80;;;;;;;;;;5051719;28;20470;-75
2022/08/19 07:33:20;;;;;;;0.70;0.20;;;22.90;99.90;;;;;;5051886;28;20449;-77
2022/08/19 07:35:50;;;;;;;0.70;0.20;;;22.90;99.90;;;;;;5052809;28;20450;-77
2022/08/19 07:38:18;;;;;;;0.70;0.20;;;;;;;;;;5059205;28;20881;-76
2022/08/19 07:40:46;;;;;;;0.70;0.20;;;23.10;99.90;;;;;;5049499;28;20471;-77
2022/08/19 07:43:15;;;;;;;0.70;0.20;;;23.20;99.90;;;;;;5051456;28;20460;-75
2022/08/19 07:45:46;;;;;;;0.70;0.10;;;23.20;99.90;;;;;;5055868;28;20477;-75
2022/08/19 07:48:15;;;;;;;0.70;0.10;;;23.20;99.90;;;;;;5071727;28;20552;-75
2022/08/19 07:50:43;;;;;;;0.70;0.20;;;23.30;99.90;;;;;;5071596;28;20466;-77
2022/08/19 07:53:13;;;;;;;0.70;0.17;;;23.40;99.90;;;;;;5071788;28;20477;-76
2022/08/19 07:55:41;;;;;;;0.70;0.20;;;23.40;99.90;;;;;;5073428;28;20450;-75
2022/08/19 07:58:13;;;;;;;0.70;0.20;;;23.50;99.90;;;;;;5063512;28;20458;-75
2022/08/19 08:00:41;;;;;;;0.70;0.10;;;23.60;99.90;;;;;;5055680;28;20473;-77
2022/08/19 08:03:10;;;;;;;0.70;0.10;;;23.70;99.90;;;;;;5055526;28;20541;-76
2022/08/19 08:11:25;;;;;;;0.70;0.20;;;24.00;99.90;;;;;;5022739;28;20566;-77
2022/08/19 08:13:57;;;;;;;0.70;0.10;;;24.00;99.90;;;;;;5021866;28;20509;-76
2022/08/19 08:16:31;;;;;;;0.70;0.20;;;;;;;;;;5044514;28;21001;-76
2022/08/19 08:19:01;;;;;;;0.70;0.20;;;24.20;99.90;;;;;;5056495;28;20489;-76
2022/08/19 08:21:34;;;;;;;0.70;0.10;;;24.40;99.90;;;;;;5054179;28;20467;-76
2022/08/19 08:24:04;;;;;;;0.70;0.20;;;24.40;99.90;;;;;;5057322;28;20446;-75
2022/08/19 08:26:32;;;;;;;0.70;0.10;;;24.40;99.90;;;;;;5074282;28;20434;-77
2022/08/19 08:29:01;;;;;;;0.70;0.20;;;24.50;99.90;;;;;;5066869;28;20510;-76
2022/08/19 08:31:40;;;;;;;0.70;0.20;;;24.60;99.90;;;;;;5053620;28;20482;-75
2022/08/19 08:34:08;;;;;;;0.70;0.20;;;24.70;99.90;;;;;;5061879;28;20529;-75
2022/08/19 08:36:40;;;;;;;0.70;0.10;;;24.70;99.90;;;;;;5061849;28;20443;-74
2022/08/19 08:39:10;;;;;;;0.70;0.20;;;24.90;99.90;;;;;;5062786;28;20454;-75
2022/08/19 08:41:46;;;;;;;0.70;0.20;;;24.90;99.90;;;;;;5052515;28;20473;-74
2022/08/19 08:44:19;;;;;;;0.70;0.27;;;25.00;99.90;;;;;;5067383;28;20796;-75
2022/08/19 08:46:51;;;;;;;0.70;0.10;;;24.90;99.90;;;;;;5052854;28;20894;-74
2022/08/19 08:49:34;;;;;;;0.87;0.37;;;24.90;99.90;;;;;;5053345;28;20479;-73
2022/08/19 08:52:06;;;;;;;0.70;0.17;;;24.90;99.90;;;;;;5055237;28;20535;-73
2022/08/19 08:54:39;;;;;;;0.70;0.17;;;25.00;99.90;;;;;;5053412;28;20478;-74
2022/08/19 08:57:20;;;;;;;0.70;0.20;;;25.00;99.90;;;;;;5045706;28;20504;-73
2022/08/19 08:59:51;;;;;;;0.80;0.30;;;25.00;99.90;;;;;;5053340;28;20848;-73
2022/08/19 09:02:20;;;;;;;0.70;0.20;;;25.10;99.90;;;;;;5054368;28;20462;-74
2022/08/19 09:04:48;;;;;;;0.70;0.10;;;25.10;99.90;;;;;;5052880;28;20447;-73
2022/08/19 09:07:26;;;;;;;0.70;0.20;;;25.10;99.90;;;;;;5053175;28;20528;-74
2022/08/19 09:10:14;;;;;;;0.70;0.20;;;25.10;99.90;;;;;;5052045;28;20854;-75
2022/08/19 09:12:57;;;;;;;0.70;0.20;;;25.10;99.90;;;;;;5054718;28;20459;-75
2022/08/19 09:16:06;;;;;;;0.70;0.20;;;;;;;;;;5047122;28;20831;-74
2022/08/19 09:18:42;;;;;;;1.10;0.87;;;25.10;99.90;;;;;;5053599;28;20443;-77
2022/08/19 09:21:11;;;;;;;0.70;0.20;;;25.20;99.90;;;;;;5053715;28;20465;-76
2022/08/19 09:23:39;;;;;;;0.70;0.20;;;25.20;99.90;;;;;;5063110;28;20453;-74
2022/08/19 09:26:13;;;;;;;0.70;0.20;;;25.30;99.90;;;;;;5061859;28;20442;-77
2022/08/19 09:28:45;;;;;;;0.70;0.20;;;25.30;99.90;;;;;;5058456;28;20445;-78
2022/08/19 09:31:18;;;;;;;0.70;0.20;;;25.40;99.90;;;;;;5051326;28;20482;-76
2022/08/19 09:33:47;;;;;;;1.47;0.83;;;25.40;99.90;;;;;;5052972;28;20447;-75
2022/08/19 09:36:22;;;;;;;0.70;0.10;;;25.50;99.90;;;;;;5054154;28;20443;-77
2022/08/19 09:39:02;;;;;;;0.70;0.10;;;25.50;99.90;;;;;;5053725;28;20860;-77
2022/08/19 09:41:31;;;;;;;0.70;0.20;;;25.70;99.90;;;;;;5053686;28;20485;-77
2022/08/19 09:44:00;;;;;;;0.80;0.40;;;25.70;99.90;;;;;;5051744;28;20502;-77
2022/08/19 09:46:31;;;;;;;0.70;0.20;;;25.70;99.90;;;;;;5053259;28;20453;-77
2022/08/19 09:49:00;;;;;;;1.07;0.47;;;25.60;99.90;;;;;;5053331;28;20565;-76
2022/08/19 09:51:33;;;;;;;0.70;0.20;;;25.60;99.90;;;;;;5060563;28;20465;-79
2022/08/19 09:54:04;;;;;;;0.80;0.43;;;25.70;99.90;;;;;;5061916;28;20454;-79
2022/08/19 09:56:33;;;;;;;0.70;0.10;;;25.70;99.90;;;;;;5060755;28;20465;-80
2022/08/19 09:59:04;;;;;;;0.70;0.10;;;25.90;99.90;;;;;;5062450;28;20533;-80
2022/08/19 10:01:33;;;;;;;0.70;0.10;;;26.00;99.90;;;;;;5073283;22;20488;-80
2022/08/19 10:04:04;;;;;;;0.70;0.10;;;;;;;;;;5062678;28;20455;-78
2022/08/19 10:06:48;;;;;;;0.80;0.50;;;26.10;99.90;;;;;;5059293;28;20535;-79
2022/08/19 10:09:21;;;;;;;0.70;0.20;;;;;;;;;;5058352;28;20478;-79
2022/08/19 10:12:06;;;;;;;1.10;0.40;;;26.20;99.90;;;;;;5058727;28;20450;-79
2022/08/19 10:14:39;;;;;;;0.70;0.20;;;;;;;;;;5065431;28;20473;-80
2022/08/19 10:17:07;;;;;;;0.70;0.20;;;26.10;99.90;;;;;;5062798;28;20442;-79
2022/08/19 10:19:47;;;;;;;0.70;0.20;;;;;;;;;;5061144;28;20904;-80
2022/08/19 10:22:23;;;;;;;0.70;0.20;;;;;;;;;;5061361;28;20457;-79
2022/08/19 10:24:52;;;;;;;9.50;9.03;;;26.10;99.90;;;;;;5100427;22;20546;-77
2022/08/19 10:27:22;;;;;;;0.70;0.20;;;26.10;99.90;;;;;;5096926;28;20441;-76
2022/08/19 10:29:53;;;;;;;2.87;2.67;;;27.10;99.90;;;;;;5089139;28;20881;-76
2022/08/19 10:32:23;;;;;;;0.70;0.20;;;26.10;99.90;;;;;;5081548;28;20453;-76
2022/08/19 10:35:01;;;;;;;0.70;0.10;;;26.20;99.90;;;;;;5094712;28;20464;-77
2022/08/19 10:37:33;;;;;;;0.70;0.10;;;26.30;99.90;;;;;;5112630;28;21026;-77
2022/08/19 10:40:02;;;;;;;0.70;0.13;;;26.50;99.90;;;;;;5113243;28;20537;-75
2022/08/19 10:42:32;;;;;;;0.70;0.20;;;26.50;99.90;;;;;;5100471;28;20448;-76
2022/08/19 10:45:00;;;;;;;0.70;0.23;;;26.70;99.90;;;;;;5095586;28;20476;-75
2022/08/19 10:47:31;;;;;;;9.80;2.73;;;26.80;99.90;;;;;;5088680;28;20432;-74
2022/08/19 10:52:47;;;;;;;2.93;0.60;;;27.00;99.90;;;;;;5106456;28;20444;-74
2022/08/19 10:58:12;;;;;;;0.70;0.10;;;27.00;99.90;;;;;;5095559;28;20456;-74
2022/08/19 11:00:40;;;;;;;1.20;0.67;;;27.10;99.90;;;;;;5092956;28;20795;-75
2022/08/19 11:03:08;;;;;;;1.20;1.07;;;27.20;99.90;;;;;;5092683;28;20559;-76
2022/08/19 11:05:37;;;;;;;0.73;0.27;;;27.20;99.90;;;;;;5097017;28;20914;-75
2022/08/19 11:08:11;;;;;;;0.70;0.20;;;27.30;99.90;;;;;;5091773;28;20460;-74
2022/08/19 11:10:53;;;;;;;0.87;0.60;;;27.50;99.90;;;;;;5090260;28;20477;-75
2022/08/19 11:13:22;;;;;;;1.47;1.27;;;27.60;99.90;;;;;;5093218;28;20501;-76
2022/08/19 11:15:57;;;;;;;0.70;0.33;;;27.50;99.90;;;;;;5094428;28;20451;-74
2022/08/19 11:18:30;;;;;;;0.70;0.20;;;27.20;99.90;;;;;;5073945;28;20441;-72
2022/08/19 11:21:06;;;;;;;0.90;0.57;;;27.20;99.90;;;;;;5080170;28;20436;-74
2022/08/19 11:23:34;;;;;;;1.07;0.50;;;27.20;99.90;;;;;;5095771;28;20977;-75
2022/08/19 11:26:02;;;;;;;0.70;0.20;;;27.20;99.90;;;;;;5093615;28;20814;-73
2022/08/19 11:28:31;;;;;;;1.50;0.87;;;27.30;99.90;;;;;;5092267;28;20999;-73
2022/08/19 11:30:59;;;;;;;0.70;0.30;;;27.40;99.90;;;;;;5092183;28;20479;-73
2022/08/19 11:33:27;;;;;;;0.80;0.40;;;27.70;99.90;;;;;;5093526;28;20888;-73
2022/08/19 11:35:57;;;;;;;1.23;1.10;;;27.80;99.90;;;;;;5095974;28;20547;-71
2022/08/19 11:38:25;;;;;;;0.70;0.20;;;28.00;99.90;;;;;;5096158;28;20439;-74
2022/08/19 11:40:58;;;;;;;1.47;1.07;;;28.00;99.90;;;;;;5096548;28;20852;-73
2022/08/19 11:43:26;;;;;;;0.70;0.20;;;27.80;99.90;;;;;;5095665;28;20475;-70
2022/08/19 11:45:56;;;;;;;0.70;0.20;;;27.80;99.90;;;;;;5097114;28;20476;-75
2022/08/19 11:48:25;;;;;;;1.47;0.67;;;27.80;99.90;;;;;;5102534;28;20445;-76
2022/08/19 11:50:55;;;;;;;0.70;0.20;;;27.80;99.90;;;;;;5105924;28;20476;-75
2022/08/19 11:53:23;;;;;;;0.80;0.40;;;27.80;99.90;;;;;;5106535;28;20466;-74
2022/08/19 11:55:56;;;;;;;0.70;0.10;;;27.90;99.90;;;;;;5104900;28;20475;-75
2022/08/19 11:58:24;;;;;;;0.73;0.37;;;27.90;99.90;;;;;;5102918;28;20439;-74
2022/08/19 12:00:52;;;;;;;0.90;0.80;;;28.00;99.90;;;;;;5106885;28;20448;-75
2022/08/19 12:03:22;;;;;;;0.70;0.20;;;;;;;;;;5098747;28;20539;-73
2022/08/19 12:05:50;;;;;;;6.60;6.33;;;27.90;99.90;;;;;;5101302;28;20454;-74
2022/08/19 12:08:19;;;;;;;0.73;0.20;;;27.60;99.90;;;;;;5109946;28;20456;-74
2022/08/19 12:10:47;;;;;;;0.70;0.10;;;27.60;99.90;;;;;;5116113;28;20471;-75
2022/08/19 12:13:18;;;;;;;0.70;0.20;;;27.40;99.90;;;;;;5105070;28;20460;-75
2022/08/19 12:15:48;;;;;;;0.70;0.20;;;27.40;99.90;;;;;;5095568;28;20543;-75
2022/08/19 12:18:16;;;;;;;1.47;0.77;;;27.50;99.90;;;;;;5103105;28;20460;-75
2022/08/19 12:20:45;;;;;;;0.70;0.30;;;27.70;99.90;;;;;;5110134;28;20511;-72
2022/08/19 12:23:14;;;;;;;1.17;0.77;;;27.90;99.90;;;;;;5111918;28;20477;-74
2022/08/19 12:25:51;;;;;;;0.70;0.20;;;28.00;99.90;;;;;;5106711;28;20849;-74
2022/08/19 12:28:21;;;;;;;1.30;1.20;;;28.00;99.90;;;;;;5100387;28;20437;-73
2022/08/19 12:30:50;;;;;;;0.90;0.40;;;28.00;99.90;;;;;;5094790;28;20465;-75
2022/08/19 12:33:19;;;;;;;0.90;0.43;;;27.70;99.90;;;;;;5094745;28;21065;-74
2022/08/19 12:35:48;;;;;;;3.87;0.87;;;27.70;99.90;;;;;;5096891;28;20444;-75
2022/08/19 12:38:16;;;;;;;0.70;0.20;;;27.70;99.90;;;;;;5093813;28;20451;-75
2022/08/19 12:40:47;;;;;;;0.70;0.30;;;27.80;99.90;;;;;;5094188;28;20825;-75
2022/08/19 12:43:16;;;;;;;0.70;0.10;;;28.20;99.90;;;;;;5094086;28;20476;-74
2022/08/19 12:45:44;;;;;;;0.70;0.10;;;28.30;99.90;;;;;;5093748;28;20447;-74
2022/08/19 12:48:14;;;;;;;0.70;0.20;;;28.20;99.90;;;;;;5094366;28;20755;-75
2022/08/19 12:51:08;;;;;;;0.70;0.20;;;28.20;99.90;;;;;;5094071;28;20465;-73
2022/08/19 12:53:36;;;;;;;0.70;0.20;;;28.10;99.90;;;;;;5094572;28;20460;-76
2022/08/19 12:56:06;;;;;;;0.70;0.20;;;28.10;99.90;;;;;;5094027;28;20956;-74
2022/08/19 12:58:41;;;;;;;0.70;0.20;;;28.10;99.90;;;;;;5094039;28;20437;-75
2022/08/19 13:01:17;;;;;;;0.70;0.20;;;28.30;99.90;;;;;;5078399;28;20887;-74
2022/08/19 13:03:49;;;;;;;0.80;0.20;;;28.50;99.90;;;;;;5094543;28;20816;-73
2022/08/19 13:06:19;;;;;;;0.73;0.27;;;28.50;99.90;;;;;;5093804;28;20902;-74
2022/08/19 13:08:47;;;;;;;1.10;0.73;;;28.50;99.90;;;;;;5094036;28;20505;-76
2022/08/19 13:11:17;;;;;;;0.70;0.20;;;28.30;99.90;;;;;;5094295;28;20560;-75
2022/08/19 13:13:47;;;;;;;0.70;0.20;;;28.20;99.90;;;;;;5094838;28;20515;-75
2022/08/19 13:16:15;;;;;;;0.80;0.37;;;;;;;;;;5098336;28;20441;-75
2022/08/19 13:18:46;;;;;;;0.70;0.20;;;28.10;99.90;;;;;;5094868;28;20943;-75
2022/08/19 13:21:14;;;;;;;0.70;0.17;;;28.00;99.90;;;;;;5095390;28;20524;-74
2022/08/19 13:23:44;;;;;;;0.70;0.30;;;28.00;99.90;;;;;;5093775;28;20476;-75
2022/08/19 13:26:13;;;;;;;0.70;0.20;;;28.00;99.90;;;;;;5093768;28;20437;-75
2022/08/19 13:34:18;;;;;;;0.70;0.20;;;28.30;99.90;;;;;;5099789;28;20460;-71
2022/08/19 13:36:46;;;;;;;0.70;0.10;;;28.50;99.90;;;;;;5113708;28;20785;-76
2022/08/19 13:39:16;;;;;;;0.70;0.10;;;28.80;99.90;;;;;;5114000;28;20440;-75